Item Display Status Humidity-temperature Sensor

Elevation Above Sea Level: 3 m

 

Deployed Sensor

  • Serial Number: 20351133
  • NDBC Property Number: 43285
  • Start Date: 4/17/2020 (11:50:41 Z)
  • End Date: 3/20/2023 (21:25:00 Z)
Relative Humidity [%]     6 entries per hour
Showing data from 8/29/2021 (01:40:00 Z) to 8/28/2021 (00:00:01 Z)
Previous Next [ Day | 3-Days | 7-Days ]
First Last
Prev [ Day | 3-Days | 7-Days ] Next
First Last

Start Time:     :
End Time:     :     
Time (in GMT) :00 :50 :40 :30 :20 :10
Previous Next [ Day | 3-Days | 7-Days ]
First Last
Prev [ Day | 3-Days | 7-Days ] Next
First Last


123 => good data
MM => data is determined as missing
-- => data not received/configured
Back to Top Back to Top
8/29/2021 02:00 to 1:10 -- -- 101.79 101.52 101.25 100.91
8/29/2021 01:00 to 0:10 100.55 100.13 99.71 99.52 99.20 98.82
8/29/2021 00:00 to 23:10 98.61 98.36 98.34 98.02 98.25 98.28
8/28/2021 23:00 to 22:10 98.95 99.33 99.52 99.58 99.54 99.27
8/28/2021 22:00 to 21:10 98.93 98.74 98.59 98.51 98.09 98.21
8/28/2021 21:00 to 20:10 98.17 98.40 98.36 98.44 98.28 98.34
8/28/2021 20:00 to 19:10 98.19 98.44 98.42 98.44 98.61 98.74
8/28/2021 19:00 to 18:10 99.14 99.52 100.11 100.47 100.78 100.95
8/28/2021 18:00 to 17:10 101.20 100.99 100.80 100.68 100.59 100.80
8/28/2021 17:00 to 16:10 100.91 100.97 100.91 100.82 100.68 100.55
8/28/2021 16:00 to 15:10 100.45 100.21 99.98 99.79 99.58 99.41
8/28/2021 15:00 to 14:10 99.41 99.27 99.06 98.80 98.61 98.55
8/28/2021 14:00 to 13:10 98.53 98.93 99.43 99.90 100.32 101.12
8/28/2021 13:00 to 12:10 101.63 101.92 -- -- 101.81 101.50
8/28/2021 12:00 to 11:10 101.14 100.59 100.02 99.50 98.89 98.42
8/28/2021 11:00 to 10:10 98.09 98.65 100.30 101.41 101.98 --
8/28/2021 10:00 to 9:10 -- -- -- -- -- --
8/28/2021 09:00 to 8:10 -- -- -- -- -- --
8/28/2021 08:00 to 7:10 -- -- -- -- -- --
8/28/2021 07:00 to 6:10 -- -- -- -- -- --
8/28/2021 06:00 to 5:10 101.90 101.90 101.88 -- -- --
8/28/2021 05:00 to 4:10 -- 101.86 101.50 101.20 100.89 100.68
8/28/2021 04:00 to 3:10 100.42 100.28 100.30 100.19 100.09 100.05
8/28/2021 03:00 to 2:10 99.92 99.88 99.77 99.46 99.31 98.99
8/28/2021 02:00 to 1:10 98.87 98.53 98.32 98.07 97.79 97.62
8/28/2021 01:00 to 0:10 97.50 97.26 96.93 96.61 96.86 96.63

 

 

 

Air Temperature [°C]     6 entries per hour
Showing data from 11/2/2021 (17:40:00 Z) to 11/1/2021 (00:00:01 Z)
Previous Next [ Day | 3-Days | 7-Days ]
First Last
Prev [ Day | 3-Days | 7-Days ] Next
First Last

Start Time:     :
End Time:     :     
Time (in GMT) :00 :50 :40 :30 :20 :10
Previous Next [ Day | 3-Days | 7-Days ]
First Last
Prev [ Day | 3-Days | 7-Days ] Next
First Last


123 => good data
MM => data is determined as missing
-- => data not received/configured
Back to Top Back to Top
11/2/2021 18:00 to 17:10 -- -- 20.29 20.09 20.25 20.28
11/2/2021 17:00 to 16:10 20.51 21.04 21.18 21.29 21.25 21.29
11/2/2021 16:00 to 15:10 21.20 21.21 21.14 21.24 21.10 21.06
11/2/2021 15:00 to 14:10 21.05 20.72 20.60 19.94 20.24 20.27
11/2/2021 14:00 to 13:10 20.76 20.77 20.89 20.86 20.75 20.75
11/2/2021 13:00 to 12:10 20.81 20.86 20.85 20.90 20.87 20.86
11/2/2021 12:00 to 11:10 20.87 20.97 20.98 21.13 21.25 21.28
11/2/2021 11:00 to 10:10 21.29 21.11 20.96 20.91 20.98 21.01
11/2/2021 10:00 to 9:10 21.16 21.13 21.08 20.89 21.01 20.46
11/2/2021 09:00 to 8:10 20.73 20.62 20.66 20.61 20.73 20.70
11/2/2021 08:00 to 7:10 20.71 20.71 20.66 20.50 20.66 20.67
11/2/2021 07:00 to 6:10 20.63 20.68 20.73 20.72 20.73 20.74
11/2/2021 06:00 to 5:10 20.77 20.76 20.62 20.60 20.48 20.47
11/2/2021 05:00 to 4:10 20.43 20.47 20.51 20.52 20.52 20.56
11/2/2021 04:00 to 3:10 20.56 20.56 20.59 20.60 20.60 20.60
11/2/2021 03:00 to 2:10 20.63 20.64 20.65 20.66 20.70 20.71
11/2/2021 02:00 to 1:10 20.69 20.70 20.67 20.61 20.60 20.64
11/2/2021 01:00 to 0:10 20.57 20.46 20.37 20.22 20.25 20.30
11/2/2021 00:00 to 23:10 20.44 20.25 20.68 20.75 20.85 20.79
11/1/2021 23:00 to 22:10 20.82 20.93 20.92 20.79 20.61 20.80
11/1/2021 22:00 to 21:10 20.87 20.83 20.76 20.80 21.00 20.98
11/1/2021 21:00 to 20:10 20.90 20.65 20.72 20.71 20.75 20.65
11/1/2021 20:00 to 19:10 20.63 20.58 20.58 20.65 20.56 20.52
11/1/2021 19:00 to 18:10 20.41 20.35 20.40 20.42 20.34 20.43
11/1/2021 18:00 to 17:10 20.36 20.37 20.59 20.62 20.53 20.53
11/1/2021 17:00 to 16:10 20.46 20.47 20.54 20.54 20.48 20.45
11/1/2021 16:00 to 15:10 20.38 20.33 20.22 20.14 20.24 20.35
11/1/2021 15:00 to 14:10 20.30 20.36 20.38 20.14 20.09 20.18
11/1/2021 14:00 to 13:10 20.09 20.14 20.28 20.21 20.18 20.46
11/1/2021 13:00 to 12:10 20.48 20.45 20.48 20.26 19.94 19.74
11/1/2021 12:00 to 11:10 20.08 20.47 20.45 20.43 20.46 20.40
11/1/2021 11:00 to 10:10 20.40 20.50 20.53 20.50 20.54 20.51
11/1/2021 10:00 to 9:10 20.46 20.50 20.45 20.33 20.16 20.00
11/1/2021 09:00 to 8:10 20.18 20.11 20.13 20.14 19.92 19.89
11/1/2021 08:00 to 7:10 19.95 20.13 20.15 20.20 20.03 20.09
11/1/2021 07:00 to 6:10 20.23 20.45 20.33 20.39 20.36 20.36
11/1/2021 06:00 to 5:10 20.31 20.30 20.31 20.54 20.48 20.45
11/1/2021 05:00 to 4:10 20.36 20.43 20.40 20.52 20.57 20.62
11/1/2021 04:00 to 3:10 20.63 20.66 20.73 20.74 20.72 20.72
11/1/2021 03:00 to 2:10 20.53 20.50 20.40 20.51 20.50 20.56
11/1/2021 02:00 to 1:10 20.61 20.61 20.77 20.71 20.74 20.78
11/1/2021 01:00 to 0:10 20.56 20.56 20.61 20.48 20.33 20.61